sensor_id;sensor_type;location;lat;lon;timestamp;pressure;altitude;pressure_sealevel;temperature;humidity
69780;BME280;57052;55.602;38.096;2022-08-19T00:01:13;100886.53;;;24.34;43.80
69780;BME280;57052;55.602;38.096;2022-08-19T00:03:39;100882.94;;;24.34;43.81
69780;BME280;57052;55.602;38.096;2022-08-19T00:06:05;100888.69;;;24.29;43.98
69780;BME280;57052;55.602;38.096;2022-08-19T00:08:30;100889.84;;;24.28;44.05
69780;BME280;57052;55.602;38.096;2022-08-19T00:10:56;100894.81;;;24.22;44.01
69780;BME280;57052;55.602;38.096;2022-08-19T00:13:22;100892.72;;;24.19;43.63
69780;BME280;57052;55.602;38.096;2022-08-19T00:15:48;100901.13;;;24.22;43.77
69780;BME280;57052;55.602;38.096;2022-08-19T00:18:13;100895.03;;;24.17;43.73
69780;BME280;57052;55.602;38.096;2022-08-19T00:20:39;100888.91;;;24.11;43.58
69780;BME280;57052;55.602;38.096;2022-08-19T00:23:06;100899.75;;;24.16;43.74
69780;BME280;57052;55.602;38.096;2022-08-19T00:25:32;100896.53;;;24.14;43.50
69780;BME280;57052;55.602;38.096;2022-08-19T00:27:58;100893.63;;;24.11;43.80
69780;BME280;57052;55.602;38.096;2022-08-19T00:30:25;100894.78;;;24.10;43.72
69780;BME280;57052;55.602;38.096;2022-08-19T00:32:52;100895.78;;;24.05;43.95
69780;BME280;57052;55.602;38.096;2022-08-19T00:35:20;100908.47;;;24.06;43.79
69780;BME280;57052;55.602;38.096;2022-08-19T00:37:47;100902.03;;;24.02;43.76
69780;BME280;57052;55.602;38.096;2022-08-19T00:40:14;100925.44;;;24.05;43.80
69780;BME280;57052;55.602;38.096;2022-08-19T00:42:40;100926.44;;;24.00;43.96
69780;BME280;57052;55.602;38.096;2022-08-19T00:45:12;100931.97;;;24.00;43.90
69780;BME280;57052;55.602;38.096;2022-08-19T00:47:38;100929.56;;;23.99;43.79
69780;BME280;57052;55.602;38.096;2022-08-19T00:50:05;100931.03;;;23.96;43.57
69780;BME280;57052;55.602;38.096;2022-08-19T00:52:37;100926.41;;;23.88;44.23
69780;BME280;57052;55.602;38.096;2022-08-19T00:55:07;100931.03;;;23.96;43.46
69780;BME280;57052;55.602;38.096;2022-08-19T00:57:38;100895.50;;;23.74;43.70
69780;BME280;57052;55.602;38.096;2022-08-19T01:00:09;100934.50;;;23.93;43.60
69780;BME280;57052;55.602;38.096;2022-08-19T01:02:37;100929.31;;;23.92;43.51
69780;BME280;57052;55.602;38.096;2022-08-19T01:05:07;100934.69;;;23.88;44.00
69780;BME280;57052;55.602;38.096;2022-08-19T01:07:34;100939.41;;;23.88;43.83
69780;BME280;57052;55.602;38.096;2022-08-19T01:10:01;100930.00;;;23.89;43.60
69780;BME280;57052;55.602;38.096;2022-08-19T01:12:27;100910.38;;;23.82;43.51
69780;BME280;57052;55.602;38.096;2022-08-19T01:14:53;100923.53;;;23.85;43.36
69780;BME280;57052;55.602;38.096;2022-08-19T01:17:21;100932.97;;;23.84;43.61
69780;BME280;57052;55.602;38.096;2022-08-19T01:19:47;100924.06;;;23.78;43.58
69780;BME280;57052;55.602;38.096;2022-08-19T01:22:25;100928.78;;;23.78;43.55
69780;BME280;57052;55.602;38.096;2022-08-19T01:24:52;100919.22;;;23.75;43.60
69780;BME280;57052;55.602;38.096;2022-08-19T01:27:18;100924.75;;;23.75;43.48
69780;BME280;57052;55.602;38.096;2022-08-19T01:29:44;100929.00;;;23.73;43.21
69780;BME280;57052;55.602;38.096;2022-08-19T01:32:13;100917.47;;;23.71;43.52
69780;BME280;57052;55.602;38.096;2022-08-19T01:34:39;100927.72;;;23.70;43.28
69780;BME280;57052;55.602;38.096;2022-08-19T01:37:08;100931.06;;;23.64;43.74
69780;BME280;57052;55.602;38.096;2022-08-19T01:39:37;100936.22;;;23.65;43.32
69780;BME280;57052;55.602;38.096;2022-08-19T01:42:03;100945.53;;;23.60;43.83
69780;BME280;57052;55.602;38.096;2022-08-19T01:44:29;100940.22;;;23.55;43.69
69780;BME280;57052;55.602;38.096;2022-08-19T01:46:55;100932.28;;;23.54;44.05
69780;BME280;57052;55.602;38.096;2022-08-19T01:49:23;100946.22;;;23.57;44.06
69780;BME280;57052;55.602;38.096;2022-08-19T01:51:49;100949.69;;;23.54;43.64
69780;BME280;57052;55.602;38.096;2022-08-19T01:54:17;100948.53;;;23.55;43.75
69780;BME280;57052;55.602;38.096;2022-08-19T01:56:44;100942.19;;;23.55;43.83
69780;BME280;57052;55.602;38.096;2022-08-19T01:59:16;100937.66;;;23.50;44.09
69780;BME280;57052;55.602;38.096;2022-08-19T02:01:42;100932.59;;;23.52;43.58
69780;BME280;57052;55.602;38.096;2022-08-19T02:04:08;100930.53;;;23.49;43.92
69780;BME280;57052;55.602;38.096;2022-08-19T02:06:34;100933.31;;;23.49;43.53
69780;BME280;57052;55.602;38.096;2022-08-19T02:09:02;100929.13;;;23.43;43.87
69780;BME280;57052;55.602;38.096;2022-08-19T02:11:31;100933.53;;;23.44;44.27
69780;BME280;57052;55.602;38.096;2022-08-19T02:14:00;100932.25;;;23.42;44.11
69780;BME280;57052;55.602;38.096;2022-08-19T02:16:28;100935.47;;;23.44;44.12
69780;BME280;57052;55.602;38.096;2022-08-19T02:18:54;100933.03;;;23.42;43.76
69780;BME280;57052;55.602;38.096;2022-08-19T02:21:22;100938.09;;;23.40;44.08
69780;BME280;57052;55.602;38.096;2022-08-19T02:23:49;100931.91;;;23.35;43.93
69780;BME280;57052;55.602;38.096;2022-08-19T02:26:17;100937.44;;;23.35;44.45
69780;BME280;57052;55.602;38.096;2022-08-19T02:28:43;100935.59;;;23.27;44.17
69780;BME280;57052;55.602;38.096;2022-08-19T02:31:10;100940.28;;;23.26;44.22
69780;BME280;57052;55.602;38.096;2022-08-19T02:33:36;100939.47;;;23.26;44.40
69780;BME280;57052;55.602;38.096;2022-08-19T02:36:04;100938.19;;;23.23;44.21
69780;BME280;57052;55.602;38.096;2022-08-19T02:38:30;100939.22;;;23.19;44.36
69780;BME280;57052;55.602;38.096;2022-08-19T02:41:02;100947.03;;;23.17;44.69
69780;BME280;57052;55.602;38.096;2022-08-19T02:43:29;100948.16;;;23.16;44.39
69780;BME280;57052;55.602;38.096;2022-08-19T02:45:55;100943.84;;;23.06;44.74
69780;BME280;57052;55.602;38.096;2022-08-19T02:48:23;100955.97;;;23.14;44.41
69780;BME280;57052;55.602;38.096;2022-08-19T02:50:51;100964.94;;;23.11;44.68
69780;BME280;57052;55.602;38.096;2022-08-19T02:53:25;100958.94;;;23.09;45.09
69780;BME280;57052;55.602;38.096;2022-08-19T02:55:51;100960.06;;;23.08;44.84
69780;BME280;57052;55.602;38.096;2022-08-19T02:58:18;100969.84;;;23.05;44.96
69780;BME280;57052;55.602;38.096;2022-08-19T03:00:48;100973.41;;;23.06;45.23
69780;BME280;57052;55.602;38.096;2022-08-19T03:03:15;100972.28;;;23.07;44.80
69780;BME280;57052;55.602;38.096;2022-08-19T03:05:42;100970.34;;;23.07;45.26
69780;BME280;57052;55.602;38.096;2022-08-19T03:08:09;100962.38;;;23.06;45.14
69780;BME280;57052;55.602;38.096;2022-08-19T03:10:42;100965.13;;;23.06;45.64
69780;BME280;57052;55.602;38.096;2022-08-19T03:13:11;100969.06;;;23.05;45.37
69780;BME280;57052;55.602;38.096;2022-08-19T03:15:41;100966.63;;;23.03;45.72
69780;BME280;57052;55.602;38.096;2022-08-19T03:18:07;100963.22;;;22.97;45.06
69780;BME280;57052;55.602;38.096;2022-08-19T03:20:33;100971.19;;;22.99;45.36
69780;BME280;57052;55.602;38.096;2022-08-19T03:22:59;100952.38;;;22.92;45.54
69780;BME280;57052;55.602;38.096;2022-08-19T03:25:25;100943.78;;;22.94;45.23
69780;BME280;57052;55.602;38.096;2022-08-19T03:27:50;100958.69;;;23.02;45.73
69780;BME280;57052;55.602;38.096;2022-08-19T03:30:16;100955.91;;;23.02;45.49
69780;BME280;57052;55.602;38.096;2022-08-19T03:32:41;100954.75;;;23.03;45.77
69780;BME280;57052;55.602;38.096;2022-08-19T03:35:07;100956.22;;;23.00;45.90
69780;BME280;57052;55.602;38.096;2022-08-19T03:37:32;100947.94;;;23.00;45.51
69780;BME280;57052;55.602;38.096;2022-08-19T03:39:58;100954.09;;;23.06;45.20
69780;BME280;57052;55.602;38.096;2022-08-19T03:42:24;100966.09;;;23.10;45.28
69780;BME280;57052;55.602;38.096;2022-08-19T03:44:52;100962.53;;;23.09;45.67
69780;BME280;57052;55.602;38.096;2022-08-19T03:47:17;100971.44;;;23.15;45.24
69780;BME280;57052;55.602;38.096;2022-08-19T03:49:44;100974.66;;;23.17;45.62
69780;BME280;57052;55.602;38.096;2022-08-19T03:52:09;100979.97;;;23.22;45.53
69780;BME280;57052;55.602;38.096;2022-08-19T03:54:35;100975.41;;;23.26;45.16
69780;BME280;57052;55.602;38.096;2022-08-19T03:57:02;100972.78;;;23.29;45.28
69780;BME280;57052;55.602;38.096;2022-08-19T03:59:31;100972.44;;;23.31;45.47
69780;BME280;57052;55.602;38.096;2022-08-19T04:02:00;100966.25;;;23.34;45.04
69780;BME280;57052;55.602;38.096;2022-08-19T04:04:26;100973.06;;;23.36;45.25
69780;BME280;57052;55.602;38.096;2022-08-19T04:06:52;100970.44;;;23.40;45.37
69780;BME280;57052;55.602;38.096;2022-08-19T04:09:19;100965.72;;;23.40;45.20
69780;BME280;57052;55.602;38.096;2022-08-19T04:11:52;100966.69;;;23.44;45.45
69780;BME280;57052;55.602;38.096;2022-08-19T04:14:24;100976.03;;;23.52;45.35
69780;BME280;57052;55.602;38.096;2022-08-19T04:16:51;100985.72;;;23.58;44.95
69780;BME280;57052;55.602;38.096;2022-08-19T04:19:18;100986.69;;;23.62;45.12
69780;BME280;57052;55.602;38.096;2022-08-19T04:21:46;100982.09;;;23.66;45.19
69780;BME280;57052;55.602;38.096;2022-08-19T04:24:12;100988.53;;;23.70;44.97
69780;BME280;57052;55.602;38.096;2022-08-19T04:26:39;100984.66;;;23.71;45.02
69780;BME280;57052;55.602;38.096;2022-08-19T04:29:08;100981.53;;;23.73;44.92
69780;BME280;57052;55.602;38.096;2022-08-19T04:31:34;100985.13;;;23.73;44.86
69780;BME280;57052;55.602;38.096;2022-08-19T04:34:03;100993.19;;;23.78;44.60
69780;BME280;57052;55.602;38.096;2022-08-19T04:36:32;100995.16;;;23.78;44.52
69780;BME280;57052;55.602;38.096;2022-08-19T04:39:02;100996.91;;;23.82;45.23
69780;BME280;57052;55.602;38.096;2022-08-19T04:41:28;100996.09;;;23.82;45.14
69780;BME280;57052;55.602;38.096;2022-08-19T04:44:13;100991.38;;;23.82;44.60
69780;BME280;57052;55.602;38.096;2022-08-19T04:46:39;100983.75;;;23.79;44.56
69780;BME280;57052;55.602;38.096;2022-08-19T04:49:05;100995.53;;;23.88;44.83
69780;BME280;57052;55.602;38.096;2022-08-19T04:51:32;100979.63;;;23.85;44.97
69780;BME280;57052;55.602;38.096;2022-08-19T04:54:00;100989.81;;;23.93;44.49
69780;BME280;57052;55.602;38.096;2022-08-19T04:56:26;100983.94;;;23.95;44.81
69780;BME280;57052;55.602;38.096;2022-08-19T04:58:54;100984.72;;;23.95;44.89
69780;BME280;57052;55.602;38.096;2022-08-19T05:01:26;100993.31;;;24.02;44.82
69780;BME280;57052;55.602;38.096;2022-08-19T05:03:53;100985.00;;;24.02;44.72
69780;BME280;57052;55.602;38.096;2022-08-19T05:06:20;100986.56;;;24.12;44.19
69780;BME280;57052;55.602;38.096;2022-08-19T05:08:47;100971.44;;;24.09;44.45
69780;BME280;57052;55.602;38.096;2022-08-19T05:11:16;100974.25;;;24.21;44.61
69780;BME280;57052;55.602;38.096;2022-08-19T05:13:43;100980.38;;;24.27;44.15
69780;BME280;57052;55.602;38.096;2022-08-19T05:16:11;100980.47;;;24.31;44.01
69780;BME280;57052;55.602;38.096;2022-08-19T05:18:37;100972.31;;;24.34;44.40
69780;BME280;57052;55.602;38.096;2022-08-19T05:21:22;100968.84;;;24.37;44.40
69780;BME280;57052;55.602;38.096;2022-08-19T05:24:07;100977.72;;;24.43;44.02
69780;BME280;57052;55.602;38.096;2022-08-19T05:26:42;100977.03;;;24.46;44.23
69780;BME280;57052;55.602;38.096;2022-08-19T05:29:09;100967.91;;;24.45;44.02
69780;BME280;57052;55.602;38.096;2022-08-19T05:31:36;100981.81;;;24.57;43.94
69780;BME280;57052;55.602;38.096;2022-08-19T05:34:02;100987.44;;;24.61;43.75
69780;BME280;57052;55.602;38.096;2022-08-19T05:36:33;100968.28;;;24.56;43.76
69780;BME280;57052;55.602;38.096;2022-08-19T05:39:00;100983.06;;;24.72;43.84
69780;BME280;57052;55.602;38.096;2022-08-19T05:41:25;100985.94;;;24.75;43.64
69780;BME280;57052;55.602;38.096;2022-08-19T05:43:58;100979.88;;;24.82;43.69
69780;BME280;57052;55.602;38.096;2022-08-19T05:46:24;100973.16;;;24.83;43.47
69780;BME280;57052;55.602;38.096;2022-08-19T05:48:49;100982.84;;;25.01;43.21
69780;BME280;57052;55.602;38.096;2022-08-19T05:51:15;100985.97;;;25.12;43.11
69780;BME280;57052;55.602;38.096;2022-08-19T05:53:42;100986.63;;;25.21;43.02
69780;BME280;57052;55.602;38.096;2022-08-19T05:56:14;100986.06;;;25.27;43.01
69780;BME280;57052;55.602;38.096;2022-08-19T05:58:42;100991.00;;;25.34;42.82
69780;BME280;57052;55.602;38.096;2022-08-19T06:01:12;100984.75;;;25.37;42.79
69780;BME280;57052;55.602;38.096;2022-08-19T06:03:39;100987.84;;;25.35;42.75
69780;BME280;57052;55.602;38.096;2022-08-19T06:06:06;100987.53;;;25.37;42.67
69780;BME280;57052;55.602;38.096;2022-08-19T06:08:33;100991.66;;;25.43;42.42
69780;BME280;57052;55.602;38.096;2022-08-19T06:11:15;100999.50;;;25.41;42.57
69780;BME280;57052;55.602;38.096;2022-08-19T06:13:42;100990.66;;;25.48;42.44
69780;BME280;57052;55.602;38.096;2022-08-19T06:16:08;100999.50;;;25.53;42.35
69780;BME280;57052;55.602;38.096;2022-08-19T06:18:33;100994.69;;;25.50;42.49
69780;BME280;57052;55.602;38.096;2022-08-19T06:20:59;100997.41;;;25.62;42.36
69780;BME280;57052;55.602;38.096;2022-08-19T06:23:30;101002.72;;;25.67;42.43
69780;BME280;57052;55.602;38.096;2022-08-19T06:25:56;101005.56;;;25.71;42.61
69780;BME280;57052;55.602;38.096;2022-08-19T06:28:22;101005.69;;;25.74;42.14
69780;BME280;57052;55.602;38.096;2022-08-19T06:30:49;101006.13;;;25.76;42.27
69780;BME280;57052;55.602;38.096;2022-08-19T06:33:15;100990.88;;;25.82;42.25
69780;BME280;57052;55.602;38.096;2022-08-19T06:35:41;100987.03;;;25.87;42.06
69780;BME280;57052;55.602;38.096;2022-08-19T06:38:07;100984.97;;;25.84;42.12
69780;BME280;57052;55.602;38.096;2022-08-19T06:40:35;100995.19;;;25.95;42.35
69780;BME280;57052;55.602;38.096;2022-08-19T06:43:01;100987.41;;;26.01;42.01
69780;BME280;57052;55.602;38.096;2022-08-19T06:45:27;100994.31;;;26.07;41.90
69780;BME280;57052;55.602;38.096;2022-08-19T06:47:53;100998.69;;;26.08;41.99
69780;BME280;57052;55.602;38.096;2022-08-19T06:50:25;100998.84;;;26.12;41.84
69780;BME280;57052;55.602;38.096;2022-08-19T06:52:51;101000.53;;;26.16;41.51
69780;BME280;57052;55.602;38.096;2022-08-19T06:55:16;101003.06;;;26.21;41.50
69780;BME280;57052;55.602;38.096;2022-08-19T06:57:42;100997.63;;;26.25;41.16
69780;BME280;57052;55.602;38.096;2022-08-19T07:00:09;101000.03;;;26.26;41.29
69780;BME280;57052;55.602;38.096;2022-08-19T07:02:43;101002.09;;;26.29;41.25
69780;BME280;57052;55.602;38.096;2022-08-19T07:05:08;100999.44;;;26.33;41.18
69780;BME280;57052;55.602;38.096;2022-08-19T07:07:34;101007.00;;;26.36;41.12
69780;BME280;57052;55.602;38.096;2022-08-19T07:10:00;101000.31;;;26.37;41.17
69780;BME280;57052;55.602;38.096;2022-08-19T07:12:28;101002.38;;;26.40;41.09
69780;BME280;57052;55.602;38.096;2022-08-19T07:14:57;101002.94;;;26.45;40.84
69780;BME280;57052;55.602;38.096;2022-08-19T07:17:23;101013.41;;;26.52;40.67
69780;BME280;57052;55.602;38.096;2022-08-19T07:19:48;101000.31;;;26.52;40.88
69780;BME280;57052;55.602;38.096;2022-08-19T07:22:15;101002.91;;;26.61;40.83
69780;BME280;57052;55.602;38.096;2022-08-19T07:24:41;101008.13;;;26.62;40.59
69780;BME280;57052;55.602;38.096;2022-08-19T07:27:07;100996.31;;;26.65;40.47
69780;BME280;57052;55.602;38.096;2022-08-19T07:29:34;101007.13;;;26.70;40.29
69780;BME280;57052;55.602;38.096;2022-08-19T07:32:01;101009.63;;;26.75;40.54
69780;BME280;57052;55.602;38.096;2022-08-19T07:34:28;101008.22;;;26.82;40.32
69780;BME280;57052;55.602;38.096;2022-08-19T07:36:55;101013.59;;;26.90;40.22
69780;BME280;57052;55.602;38.096;2022-08-19T07:39:30;101011.34;;;26.96;40.20
69780;BME280;57052;55.602;38.096;2022-08-19T07:41:58;101014.75;;;27.05;39.86
69780;BME280;57052;55.602;38.096;2022-08-19T07:44:24;101008.97;;;27.13;39.60
69780;BME280;57052;55.602;38.096;2022-08-19T07:46:53;101007.09;;;27.17;39.01
69780;BME280;57052;55.602;38.096;2022-08-19T07:49:21;101011.13;;;27.20;39.24
69780;BME280;57052;55.602;38.096;2022-08-19T07:51:51;101020.88;;;27.29;38.91
69780;BME280;57052;55.602;38.096;2022-08-19T07:54:19;101007.94;;;27.37;38.50
69780;BME280;57052;55.602;38.096;2022-08-19T07:56:45;101007.84;;;27.49;38.28
69780;BME280;57052;55.602;38.096;2022-08-19T07:59:11;101009.22;;;27.59;37.98
69780;BME280;57052;55.602;38.096;2022-08-19T08:01:38;101008.22;;;27.67;38.04
69780;BME280;57052;55.602;38.096;2022-08-19T08:04:06;101020.28;;;27.74;37.84
69780;BME280;57052;55.602;38.096;2022-08-19T08:06:51;101005.38;;;27.82;37.82
69780;BME280;57052;55.602;38.096;2022-08-19T08:09:38;101006.75;;;27.92;37.80
69780;BME280;57052;55.602;38.096;2022-08-19T08:12:10;101006.81;;;27.95;37.82
69780;BME280;57052;55.602;38.096;2022-08-19T08:14:44;101002.41;;;27.94;36.89
69780;BME280;57052;55.602;38.096;2022-08-19T08:17:11;100999.94;;;28.09;37.43
69780;BME280;57052;55.602;38.096;2022-08-19T08:19:38;100993.63;;;28.12;36.99
69780;BME280;57052;55.602;38.096;2022-08-19T08:22:07;101005.41;;;28.24;36.68
69780;BME280;57052;55.602;38.096;2022-08-19T08:24:33;101019.47;;;28.31;36.91
69780;BME280;57052;55.602;38.096;2022-08-19T08:27:01;101006.34;;;28.32;36.81
69780;BME280;57052;55.602;38.096;2022-08-19T08:29:29;101015.31;;;28.44;36.35
69780;BME280;57052;55.602;38.096;2022-08-19T08:31:55;101016.19;;;28.48;36.43
69780;BME280;57052;55.602;38.096;2022-08-19T08:34:21;101019.03;;;28.52;36.15
69780;BME280;57052;55.602;38.096;2022-08-19T08:36:47;101012.72;;;28.55;36.02
69780;BME280;57052;55.602;38.096;2022-08-19T08:39:16;101011.06;;;28.50;36.38
69780;BME280;57052;55.602;38.096;2022-08-19T08:41:58;101002.25;;;28.48;35.89
69780;BME280;57052;55.602;38.096;2022-08-19T08:47:03;101029.06;;;28.56;35.92
69780;BME280;57052;55.602;38.096;2022-08-19T08:49:36;101003.13;;;28.52;35.29
69780;BME280;57052;55.602;38.096;2022-08-19T08:54:48;101022.56;;;28.68;34.08
69780;BME280;57052;55.602;38.096;2022-08-19T08:57:20;101014.31;;;28.75;34.04
69780;BME280;57052;55.602;38.096;2022-08-19T08:59:50;101021.53;;;28.80;34.59
69780;BME280;57052;55.602;38.096;2022-08-19T09:02:18;101024.81;;;28.85;34.06
69780;BME280;57052;55.602;38.096;2022-08-19T09:04:45;101001.91;;;28.73;33.93
69780;BME280;57052;55.602;38.096;2022-08-19T09:10:10;101021.94;;;29.04;32.96
69780;BME280;57052;55.602;38.096;2022-08-19T09:12:59;101028.31;;;29.05;32.22
69780;BME280;57052;55.602;38.096;2022-08-19T09:15:34;101026.22;;;29.21;31.46
69780;BME280;57052;55.602;38.096;2022-08-19T09:18:03;101025.94;;;29.30;31.21
69780;BME280;57052;55.602;38.096;2022-08-19T09:20:29;101023.66;;;29.39;31.76
69780;BME280;57052;55.602;38.096;2022-08-19T09:22:57;101012.66;;;29.49;31.27
69780;BME280;57052;55.602;38.096;2022-08-19T09:25:24;101013.19;;;29.58;30.79
69780;BME280;57052;55.602;38.096;2022-08-19T09:27:52;101028.47;;;29.68;30.57
69780;BME280;57052;55.602;38.096;2022-08-19T09:30:27;101032.50;;;29.74;29.28
69780;BME280;57052;55.602;38.096;2022-08-19T09:32:54;101031.84;;;29.80;29.85
69780;BME280;57052;55.602;38.096;2022-08-19T09:35:22;101033.47;;;29.85;29.00
69780;BME280;57052;55.602;38.096;2022-08-19T09:37:48;101034.75;;;29.91;29.25
69780;BME280;57052;55.602;38.096;2022-08-19T09:40:15;101032.00;;;29.95;28.00
69780;BME280;57052;55.602;38.096;2022-08-19T09:42:44;101049.63;;;30.02;27.51
69780;BME280;57052;55.602;38.096;2022-08-19T09:45:13;101035.34;;;30.07;27.29
69780;BME280;57052;55.602;38.096;2022-08-19T09:47:39;101032.53;;;30.07;27.25
69780;BME280;57052;55.602;38.096;2022-08-19T09:50:07;101036.63;;;30.13;27.26
69780;BME280;57052;55.602;38.096;2022-08-19T09:52:33;101041.53;;;30.23;27.14
69780;BME280;57052;55.602;38.096;2022-08-19T09:55:07;101052.47;;;30.39;25.55
69780;BME280;57052;55.602;38.096;2022-08-19T09:57:33;101043.38;;;30.45;26.79
69780;BME280;57052;55.602;38.096;2022-08-19T09:59:59;101055.13;;;30.65;26.04
69780;BME280;57052;55.602;38.096;2022-08-19T10:02:24;101053.25;;;30.80;25.55
69780;BME280;57052;55.602;38.096;2022-08-19T10:04:51;101045.81;;;30.91;25.76
69780;BME280;57052;55.602;38.096;2022-08-19T10:07:36;101058.34;;;31.11;25.75
69780;BME280;57052;55.602;38.096;2022-08-19T10:10:04;101057.25;;;31.26;25.00
69780;BME280;57052;55.602;38.096;2022-08-19T10:12:32;101055.72;;;31.39;24.80
69780;BME280;57052;55.602;38.096;2022-08-19T10:14:59;101060.22;;;31.47;25.03
69780;BME280;57052;55.602;38.096;2022-08-19T10:17:25;101068.22;;;31.52;24.84
69780;BME280;57052;55.602;38.096;2022-08-19T10:19:51;101047.84;;;31.52;25.23
69780;BME280;57052;55.602;38.096;2022-08-19T10:22:18;101051.91;;;31.61;25.12
69780;BME280;57052;55.602;38.096;2022-08-19T10:24:45;101057.09;;;31.63;25.25
69780;BME280;57052;55.602;38.096;2022-08-19T10:27:11;101046.69;;;31.60;25.32
69780;BME280;57052;55.602;38.096;2022-08-19T10:29:38;101055.84;;;31.57;25.34
69780;BME280;57052;55.602;38.096;2022-08-19T10:32:06;101057.91;;;31.63;24.78
69780;BME280;57052;55.602;38.096;2022-08-19T10:34:32;101060.72;;;31.63;25.30
69780;BME280;57052;55.602;38.096;2022-08-19T10:36:59;101068.34;;;31.66;25.24
69780;BME280;57052;55.602;38.096;2022-08-19T10:39:26;101070.38;;;31.77;25.51
69780;BME280;57052;55.602;38.096;2022-08-19T10:41:54;101071.22;;;31.88;25.18
69780;BME280;57052;55.602;38.096;2022-08-19T10:44:21;101061.72;;;32.03;24.96
69780;BME280;57052;55.602;38.096;2022-08-19T10:46:48;101060.56;;;32.18;25.23
69780;BME280;57052;55.602;38.096;2022-08-19T10:49:13;101063.78;;;32.27;24.51
69780;BME280;57052;55.602;38.096;2022-08-19T10:51:40;101058.19;;;32.38;24.71
69780;BME280;57052;55.602;38.096;2022-08-19T10:54:25;101057.88;;;32.60;24.39
69780;BME280;57052;55.602;38.096;2022-08-19T10:57:10;101059.50;;;32.79;24.02
69780;BME280;57052;55.602;38.096;2022-08-19T10:59:36;101044.25;;;32.97;23.96
69780;BME280;57052;55.602;38.096;2022-08-19T11:02:07;101053.06;;;33.17;23.02
69780;BME280;57052;55.602;38.096;2022-08-19T11:04:36;101059.88;;;33.37;23.06
69780;BME280;57052;55.602;38.096;2022-08-19T11:07:03;101038.19;;;33.52;22.91
69780;BME280;57052;55.602;38.096;2022-08-19T11:09:30;101056.22;;;33.65;22.19
69780;BME280;57052;55.602;38.096;2022-08-19T11:11:56;101042.94;;;33.76;21.93
69780;BME280;57052;55.602;38.096;2022-08-19T11:14:23;101051.28;;;33.90;22.19
69780;BME280;57052;55.602;38.096;2022-08-19T11:16:52;101048.84;;;34.06;22.20
69780;BME280;57052;55.602;38.096;2022-08-19T11:19:21;101059.56;;;34.26;22.44
69780;BME280;57052;55.602;38.096;2022-08-19T11:21:49;101059.03;;;34.45;22.09
69780;BME280;57052;55.602;38.096;2022-08-19T11:24:20;101046.13;;;34.58;21.63
69780;BME280;57052;55.602;38.096;2022-08-19T11:26:48;101040.50;;;34.61;21.75
69780;BME280;57052;55.602;38.096;2022-08-19T11:29:15;101047.19;;;34.78;21.53
69780;BME280;57052;55.602;38.096;2022-08-19T11:31:44;101059.53;;;34.95;21.54
69780;BME280;57052;55.602;38.096;2022-08-19T11:34:13;101054.22;;;35.04;21.18
69780;BME280;57052;55.602;38.096;2022-08-19T11:36:41;101048.06;;;35.16;21.20
69780;BME280;57052;55.602;38.096;2022-08-19T11:39:09;101040.66;;;35.32;21.32
69780;BME280;57052;55.602;38.096;2022-08-19T11:41:35;101034.53;;;35.41;21.05
69780;BME280;57052;55.602;38.096;2022-08-19T11:44:02;101042.84;;;35.55;21.18
69780;BME280;57052;55.602;38.096;2022-08-19T11:46:28;101037.09;;;35.66;20.91
69780;BME280;57052;55.602;38.096;2022-08-19T11:48:55;101039.00;;;35.76;20.75
69780;BME280;57052;55.602;38.096;2022-08-19T11:51:23;101030.03;;;35.84;20.71
69780;BME280;57052;55.602;38.096;2022-08-19T11:53:51;101031.22;;;35.87;20.52
69780;BME280;57052;55.602;38.096;2022-08-19T11:56:17;101029.94;;;35.91;20.79
69780;BME280;57052;55.602;38.096;2022-08-19T11:58:44;101024.66;;;35.93;20.68
69780;BME280;57052;55.602;38.096;2022-08-19T12:01:14;101025.00;;;36.03;19.92
69780;BME280;57052;55.602;38.096;2022-08-19T12:03:45;101024.09;;;36.09;20.55
69780;BME280;57052;55.602;38.096;2022-08-19T12:06:14;101019.34;;;36.03;20.24
69780;BME280;57052;55.602;38.096;2022-08-19T12:08:41;101013.34;;;35.97;20.22
69780;BME280;57052;55.602;38.096;2022-08-19T12:11:09;101023.03;;;35.96;20.47
69780;BME280;57052;55.602;38.096;2022-08-19T12:13:36;101025.47;;;35.94;20.23
69780;BME280;57052;55.602;38.096;2022-08-19T12:16:11;101027.56;;;35.90;19.86
69780;BME280;57052;55.602;38.096;2022-08-19T12:18:38;101026.84;;;35.82;20.23
69780;BME280;57052;55.602;38.096;2022-08-19T12:21:04;101017.75;;;35.68;20.44
69780;BME280;57052;55.602;38.096;2022-08-19T12:23:30;101034.66;;;35.68;20.53
69780;BME280;57052;55.602;38.096;2022-08-19T12:25:55;101043.72;;;35.52;20.64
69780;BME280;57052;55.602;38.096;2022-08-19T12:28:23;101020.91;;;35.39;20.51
69780;BME280;57052;55.602;38.096;2022-08-19T12:30:50;101026.66;;;35.25;20.84
69780;BME280;57052;55.602;38.096;2022-08-19T12:33:17;101042.09;;;35.10;20.86
69780;BME280;57052;55.602;38.096;2022-08-19T12:35:44;101043.41;;;34.95;21.08
69780;BME280;57052;55.602;38.096;2022-08-19T12:38:14;101035.56;;;34.72;20.98
69780;BME280;57052;55.602;38.096;2022-08-19T12:40:40;101026.50;;;34.54;21.73
69780;BME280;57052;55.602;38.096;2022-08-19T12:43:07;101032.16;;;34.44;21.67
69780;BME280;57052;55.602;38.096;2022-08-19T12:45:33;101026.22;;;34.35;21.92
69780;BME280;57052;55.602;38.096;2022-08-19T12:47:59;101039.91;;;34.26;22.15
69780;BME280;57052;55.602;38.096;2022-08-19T12:50:25;101037.94;;;34.15;21.74
69780;BME280;57052;55.602;38.096;2022-08-19T12:52:50;101032.00;;;33.92;21.74